createdAt,value
2022-11-27T00:00:56.708Z,79.98
2022-11-27T00:03:23.308Z,80.01
2022-11-27T00:05:57.899Z,81.01
2022-11-27T00:08:24.946Z,81.11
2022-11-27T00:10:51.511Z,81.35
2022-11-27T00:13:18.056Z,80.41
2022-11-27T00:15:44.887Z,81.43
2022-11-27T00:18:12.215Z,80.49
2022-11-27T00:20:38.816Z,80.52
2022-11-27T00:23:05.303Z,81.29
2022-11-27T00:25:32.398Z,79.88
2022-11-27T00:27:58.930Z,80.74
2022-11-27T00:30:25.364Z,79.79
2022-11-27T00:32:51.819Z,81.11
2022-11-27T00:35:18.339Z,81.30
2022-11-27T00:37:44.801Z,81.70
2022-11-27T00:40:11.556Z,83.03
2022-11-27T00:42:38.051Z,83.26
2022-11-27T00:45:04.679Z,83.01
2022-11-27T00:47:31.134Z,82.06
2022-11-27T00:49:57.799Z,84.12
2022-11-27T00:52:24.235Z,83.00
2022-11-27T00:54:50.868Z,83.59
2022-11-27T00:57:17.306Z,82.72
2022-11-27T00:59:43.776Z,83.06
2022-11-27T01:02:10.244Z,83.71
2022-11-27T01:04:36.981Z,83.05
2022-11-27T01:07:03.562Z,82.94
2022-11-27T01:09:30.061Z,82.73
2022-11-27T01:11:56.469Z,82.15
2022-11-27T01:14:22.949Z,81.63
2022-11-27T01:16:49.424Z,83.45
2022-11-27T01:19:16.359Z,81.63
2022-11-27T01:21:43.004Z,81.02
2022-11-27T01:24:11.121Z,81.84
2022-11-27T01:26:37.560Z,81.19
2022-11-27T01:29:04.055Z,81.02
2022-11-27T01:31:32.413Z,82.32
2022-11-27T01:34:01.875Z,84.30
2022-11-27T01:36:29.279Z,83.88
2022-11-27T01:38:55.784Z,83.58
2022-11-27T01:41:36.219Z,84.16
2022-11-27T01:44:24.106Z,85.04
2022-11-27T01:46:53.736Z,85.28
2022-11-27T01:49:34.234Z,85.48
2022-11-27T01:52:03.719Z,84.39
2022-11-27T01:54:38.989Z,83.48
2022-11-27T01:57:13.611Z,84.90
2022-11-27T01:59:40.958Z,83.59
2022-11-27T02:02:07.558Z,84.79
2022-11-27T02:04:34.127Z,83.98
2022-11-27T02:07:00.812Z,82.60
2022-11-27T02:09:28.346Z,83.86
2022-11-27T02:12:11.199Z,82.10
2022-11-27T02:14:50.402Z,84.30
2022-11-27T02:17:20.956Z,83.16
2022-11-27T02:20:06.202Z,82.60
2022-11-27T02:22:38.630Z,82.76
2022-11-27T02:25:11.136Z,83.30
2022-11-27T02:28:39.445Z,82.83
2022-11-27T02:31:10.984Z,81.94
2022-11-27T02:33:41.797Z,81.14
2022-11-27T02:36:19.524Z,81.20
2022-11-27T02:38:56.204Z,80.94
2022-11-27T02:41:27.648Z,79.84
2022-11-27T02:43:54.776Z,79.65
2022-11-27T02:46:21.614Z,80.19
2022-11-27T02:48:54.794Z,79.48
2022-11-27T02:51:25.736Z,81.01
2022-11-27T02:53:55.103Z,80.23
2022-11-27T02:56:24.651Z,79.29
2022-11-27T02:58:51.827Z,80.51
2022-11-27T03:01:19.166Z,79.09
2022-11-27T03:03:48.090Z,79.61
2022-11-27T03:06:19.371Z,78.99
2022-11-27T03:08:51.303Z,79.38
2022-11-27T03:11:17.875Z,79.73
2022-11-27T03:13:48.659Z,79.02
2022-11-27T03:16:34.852Z,79.33
2022-11-27T03:19:19.409Z,78.85
2022-11-27T03:21:50.556Z,78.89
2022-11-27T03:24:17.457Z,78.69
2022-11-27T03:26:44.013Z,79.23
2022-11-27T03:29:49.820Z,78.46
2022-11-27T03:32:16.745Z,78.25
2022-11-27T03:34:43.478Z,78.09
2022-11-27T03:37:10.162Z,78.36
2022-11-27T03:39:36.883Z,78.76
2022-11-27T03:42:41.939Z,79.74
2022-11-27T03:45:22.203Z,78.82
2022-11-27T03:48:18.381Z,79.19
2022-11-27T03:51:00.139Z,78.93
2022-11-27T03:53:57.785Z,79.60
2022-11-27T03:56:38.451Z,79.14
2022-11-27T03:59:09.984Z,79.36
2022-11-27T04:01:36.682Z,79.37
2022-11-27T04:04:03.434Z,79.54
2022-11-27T04:06:29.922Z,79.34
2022-11-27T04:08:56.355Z,78.65
2022-11-27T04:11:22.804Z,79.01
2022-11-27T04:13:49.255Z,80.04
2022-11-27T04:16:15.842Z,78.86
2022-11-27T04:18:42.307Z,79.75
2022-11-27T04:21:08.792Z,80.44
2022-11-27T04:23:35.267Z,80.20
2022-11-27T04:26:02.030Z,79.93
2022-11-27T04:28:28.571Z,79.97
2022-11-27T04:30:55.047Z,79.63
2022-11-27T04:33:21.925Z,79.32
2022-11-27T04:35:48.996Z,79.58
2022-11-27T04:38:15.444Z,79.77
2022-11-27T04:40:41.908Z,81.60
2022-11-27T04:43:08.364Z,80.98
2022-11-27T04:45:34.871Z,80.95
2022-11-27T04:48:01.334Z,80.76
2022-11-27T04:50:27.848Z,79.87
2022-11-27T04:52:54.333Z,80.94
2022-11-27T04:55:20.801Z,79.74
2022-11-27T04:57:47.266Z,80.06
2022-11-27T05:00:14.122Z,79.72
2022-11-27T05:02:40.734Z,79.79
2022-11-27T05:05:07.608Z,79.09
2022-11-27T05:07:34.187Z,79.36
2022-11-27T05:10:00.694Z,79.19
2022-11-27T05:12:27.163Z,79.25
2022-11-27T05:14:53.588Z,80.27
2022-11-27T05:17:20.047Z,78.82
2022-11-27T05:19:46.478Z,79.43
2022-11-27T05:22:12.938Z,79.89
2022-11-27T05:24:39.604Z,78.91
2022-11-27T05:27:06.243Z,78.82
2022-11-27T05:29:32.712Z,79.85
2022-11-27T05:31:59.170Z,80.51
2022-11-27T05:34:25.610Z,80.09
2022-11-27T05:36:52.077Z,79.46
2022-11-27T05:39:18.552Z,79.67
2022-11-27T05:41:45.067Z,78.20
2022-11-27T05:44:15.436Z,78.11
2022-11-27T05:46:45.822Z,76.93
2022-11-27T05:49:14.358Z,77.97
2022-11-27T05:51:44.129Z,77.57
2022-11-27T05:54:12.912Z,77.58
2022-11-27T05:56:39.399Z,78.28
2022-11-27T05:59:05.913Z,79.76
2022-11-27T06:01:32.478Z,78.31
2022-11-27T06:03:58.939Z,78.13
2022-11-27T06:06:25.420Z,78.01
2022-11-27T06:08:51.881Z,77.53
2022-11-27T06:11:20.972Z,78.04
2022-11-27T06:13:48.537Z,79.19
2022-11-27T06:16:22.535Z,79.28
2022-11-27T06:18:51.239Z,80.83
2022-11-27T06:21:17.821Z,81.31
2022-11-27T06:23:44.648Z,81.75
2022-11-27T06:26:19.983Z,81.92
2022-11-27T06:28:47.258Z,80.94
2022-11-27T06:31:18.308Z,81.02
2022-11-27T06:33:46.287Z,80.81
2022-11-27T06:36:12.727Z,81.43
2022-11-27T06:38:39.298Z,81.90
2022-11-27T06:41:11.542Z,81.16
2022-11-27T06:43:38.577Z,80.88
2022-11-27T06:46:06.935Z,80.76
2022-11-27T06:48:34.296Z,80.76
2022-11-27T06:51:02.172Z,79.80
2022-11-27T06:53:29.753Z,80.86
2022-11-27T06:55:56.760Z,79.91
2022-11-27T06:58:29.345Z,82.10
2022-11-27T07:00:59.020Z,82.33
2022-11-27T07:03:25.963Z,83.25
2022-11-27T07:05:52.577Z,81.69
2022-11-27T07:08:19.075Z,80.00
2022-11-27T07:10:45.592Z,81.26
2022-11-27T07:13:12.058Z,80.39
2022-11-27T07:15:38.486Z,81.53
2022-11-27T07:18:04.992Z,82.12
2022-11-27T07:20:32.247Z,82.21
2022-11-27T07:22:58.730Z,83.81
2022-11-27T07:25:25.192Z,81.83
2022-11-27T07:27:51.661Z,81.53
2022-11-27T07:30:18.273Z,80.77
2022-11-27T07:32:44.736Z,80.78
2022-11-27T07:35:11.315Z,81.05
2022-11-27T07:37:37.831Z,81.73
2022-11-27T07:40:05.147Z,82.35
2022-11-27T07:42:39.439Z,80.83
2022-11-27T07:45:08.268Z,81.90
2022-11-27T07:47:34.754Z,82.22
2022-11-27T07:50:01.335Z,81.11
2022-11-27T07:52:27.880Z,80.72
2022-11-27T07:54:54.455Z,80.93
2022-11-27T07:57:21.049Z,81.84
2022-11-27T07:59:47.898Z,82.62
2022-11-27T08:02:14.876Z,81.37
2022-11-27T08:04:41.625Z,81.88
2022-11-27T08:07:08.421Z,82.17
2022-11-27T08:09:34.895Z,79.55
2022-11-27T08:12:01.374Z,79.59
2022-11-27T08:14:27.885Z,79.98
2022-11-27T08:16:54.421Z,80.65
2022-11-27T08:19:21.023Z,81.64
2022-11-27T08:21:47.496Z,80.59
2022-11-27T08:24:13.974Z,81.17
2022-11-27T08:26:40.476Z,81.65
2022-11-27T08:29:07.278Z,81.65
2022-11-27T08:31:34.057Z,82.74
2022-11-27T08:34:00.643Z,81.70
2022-11-27T08:36:27.279Z,81.39
2022-11-27T08:38:55.112Z,82.49
2022-11-27T08:41:22.002Z,81.93
2022-11-27T08:43:48.458Z,82.46
2022-11-27T08:46:15.049Z,80.98
2022-11-27T08:48:42.077Z,81.84
2022-11-27T08:51:10.999Z,82.14
2022-11-27T08:53:38.076Z,80.71
2022-11-27T08:56:14.199Z,80.96
2022-11-27T08:58:41.210Z,80.19
2022-11-27T09:01:12.673Z,80.27
2022-11-27T09:03:39.419Z,81.12
2022-11-27T09:06:07.728Z,80.94
2022-11-27T09:08:34.185Z,81.20
2022-11-27T09:11:01.484Z,80.59
2022-11-27T09:13:27.951Z,81.49
2022-11-27T09:15:56.576Z,80.05
2022-11-27T09:18:23.426Z,79.90
2022-11-27T09:20:58.095Z,80.89
2022-11-27T09:23:24.670Z,80.94
2022-11-27T09:25:51.196Z,81.63
2022-11-27T09:28:17.704Z,80.43
2022-11-27T09:30:44.320Z,80.23
2022-11-27T09:33:10.868Z,79.86
2022-11-27T09:35:38.266Z,80.95
2022-11-27T09:38:04.806Z,80.92
2022-11-27T09:40:31.360Z,82.82
2022-11-27T09:43:02.946Z,80.83
2022-11-27T09:45:29.693Z,80.77
2022-11-27T09:47:59.303Z,80.88
2022-11-27T09:50:29.006Z,80.59
2022-11-27T09:53:00.114Z,80.84
2022-11-27T09:55:34.133Z,81.43
2022-11-27T09:58:26.898Z,81.35
2022-11-27T10:00:53.409Z,81.95
2022-11-27T10:03:27.418Z,80.61
2022-11-27T10:06:15.817Z,79.44
2022-11-27T10:08:55.402Z,80.46
2022-11-27T10:11:40.351Z,80.46
2022-11-27T10:14:34.064Z,79.65
2022-11-27T10:17:06.500Z,81.57
2022-11-27T10:19:42.782Z,79.32
2022-11-27T10:22:29.763Z,80.22
2022-11-27T10:25:02.307Z,81.27
2022-11-27T10:27:38.644Z,80.38
2022-11-27T10:30:17.266Z,81.26
2022-11-27T10:32:55.049Z,81.03
2022-11-27T10:35:24.478Z,80.54
2022-11-27T10:38:06.518Z,81.25
2022-11-27T10:40:46.248Z,79.96
2022-11-27T10:43:20.280Z,79.38
2022-11-27T10:46:08.057Z,79.51
2022-11-27T10:48:34.625Z,79.73
2022-11-27T10:51:01.296Z,80.16
2022-11-27T10:53:32.264Z,78.61
2022-11-27T10:56:05.523Z,79.18
2022-11-27T10:58:41.974Z,79.97
2022-11-27T11:01:09.757Z,79.15
2022-11-27T11:03:36.887Z,78.56
2022-11-27T11:06:23.213Z,78.33
2022-11-27T11:09:13.161Z,79.45
2022-11-27T11:11:39.861Z,79.11
2022-11-27T11:14:16.936Z,79.27
2022-11-27T11:16:45.072Z,78.57
2022-11-27T11:19:22.434Z,78.76
2022-11-27T11:21:49.140Z,78.77
2022-11-27T11:24:24.979Z,78.16
2022-11-27T11:26:59.267Z,78.74
2022-11-27T11:29:40.233Z,78.56
2022-11-27T11:32:20.470Z,77.83
2022-11-27T11:35:10.518Z,77.38
2022-11-27T11:37:44.988Z,78.67
2022-11-27T11:40:16.548Z,77.65
2022-11-27T11:42:58.593Z,78.69
2022-11-27T11:45:31.256Z,78.20
2022-11-27T11:48:02.541Z,77.94
2022-11-27T11:50:45.381Z,77.26
2022-11-27T11:53:34.110Z,77.91
2022-11-27T11:56:22.784Z,77.71
2022-11-27T11:59:02.947Z,77.20
2022-11-27T12:01:36.598Z,77.55
2022-11-27T12:04:21.445Z,77.22
2022-11-27T12:07:09.503Z,77.54
2022-11-27T12:09:42.064Z,76.71
2022-11-27T12:12:20.972Z,76.93
2022-11-27T12:14:50.677Z,76.35
2022-11-27T12:17:41.454Z,77.16
2022-11-27T12:20:14.753Z,76.65
2022-11-27T12:23:06.036Z,77.19
2022-11-27T12:26:11.599Z,75.66
2022-11-27T12:29:03.878Z,76.38
2022-11-27T12:31:39.530Z,75.50
2022-11-27T12:34:24.127Z,75.98
2022-11-27T12:37:14.364Z,76.62
2022-11-27T12:39:49.779Z,77.36
2022-11-27T12:42:24.172Z,77.14
2022-11-27T12:44:57.186Z,76.89
2022-11-27T12:47:40.208Z,76.04
2022-11-27T12:50:30.408Z,76.12
2022-11-27T12:53:11.574Z,77.55
2022-11-27T12:55:39.563Z,76.89
2022-11-27T12:58:10.750Z,77.10
2022-11-27T13:00:41.263Z,77.23
2022-11-27T13:03:18.634Z,76.07
2022-11-27T13:06:03.577Z,75.61
2022-11-27T13:08:48.339Z,75.53
2022-11-27T13:11:19.471Z,75.43
2022-11-27T13:13:49.119Z,75.60
2022-11-27T13:16:25.412Z,75.58
2022-11-27T13:18:55.253Z,75.42
2022-11-27T13:21:28.316Z,75.68
2022-11-27T13:23:54.993Z,75.78
2022-11-27T13:26:26.653Z,75.82
2022-11-27T13:28:56.390Z,75.92
2022-11-27T13:31:28.607Z,75.90
2022-11-27T13:34:00.856Z,75.81
2022-11-27T13:36:46.225Z,74.07
2022-11-27T13:39:24.646Z,74.49
2022-11-27T13:42:00.725Z,75.36
2022-11-27T13:44:29.028Z,75.09
2022-11-27T13:46:58.755Z,75.34
2022-11-27T13:49:28.547Z,76.34
2022-11-27T13:52:27.954Z,76.46
2022-11-27T13:54:59.250Z,75.44
2022-11-27T13:57:27.406Z,77.15
2022-11-27T14:00:05.201Z,76.28
2022-11-27T14:02:48.536Z,75.61
2022-11-27T14:05:18.146Z,75.74
2022-11-27T14:07:49.887Z,75.24
2022-11-27T14:10:18.144Z,76.25
2022-11-27T14:12:53.529Z,76.67
2022-11-27T14:15:25.632Z,76.33
2022-11-27T14:17:55.227Z,75.96
2022-11-27T14:20:28.217Z,76.08
2022-11-27T14:23:13.490Z,75.76
2022-11-27T14:25:40.916Z,76.65
2022-11-27T14:28:21.384Z,76.57
2022-11-27T14:30:50.440Z,76.66
2022-11-27T14:33:28.249Z,76.51
2022-11-27T14:35:57.034Z,75.82
2022-11-27T14:38:24.856Z,76.38
2022-11-27T14:40:55.818Z,74.97
2022-11-27T14:43:26.006Z,76.47
2022-11-27T14:45:55.474Z,76.21
2022-11-27T14:48:24.302Z,76.76
2022-11-27T14:50:51.471Z,75.88
2022-11-27T14:53:19.980Z,75.45
2022-11-27T14:55:49.302Z,75.55
2022-11-27T14:58:22.693Z,75.27
2022-11-27T15:00:59.423Z,76.41
2022-11-27T15:03:26.377Z,76.84
2022-11-27T15:05:54.914Z,76.33
2022-11-27T15:08:21.567Z,77.09
2022-11-27T15:10:48.114Z,76.59
2022-11-27T15:13:22.852Z,76.91
2022-11-27T15:16:02.580Z,76.39
2022-11-27T15:18:29.826Z,76.84
2022-11-27T15:20:57.517Z,76.23
2022-11-27T15:23:27.920Z,75.45
2022-11-27T15:26:00.728Z,75.61
2022-11-27T15:28:34.033Z,76.22
2022-11-27T15:31:01.113Z,75.88
2022-11-27T15:33:32.936Z,75.51
2022-11-27T15:36:41.986Z,76.92
2022-11-27T15:39:21.639Z,76.73
2022-11-27T15:41:54.187Z,75.39
2022-11-27T15:44:20.975Z,75.88
2022-11-27T15:46:47.586Z,75.09
2022-11-27T15:49:15.224Z,74.83
2022-11-27T15:51:42.319Z,74.58
2022-11-27T15:54:08.905Z,74.47
2022-11-27T15:56:35.419Z,75.92
2022-11-27T15:59:01.878Z,74.90
2022-11-27T16:01:28.368Z,75.72
2022-11-27T16:03:55.795Z,75.23
2022-11-27T16:06:24.644Z,75.33
2022-11-27T16:08:58.911Z,75.23
2022-11-27T16:11:26.651Z,75.16
2022-11-27T16:13:53.105Z,75.76
2022-11-27T16:16:20.138Z,76.80
2022-11-27T16:18:46.756Z,75.22
2022-11-27T16:21:15.403Z,75.03
2022-11-27T16:23:42.141Z,75.13
2022-11-27T16:26:11.592Z,75.84
2022-11-27T16:28:38.055Z,75.48
2022-11-27T16:31:08.637Z,76.62
2022-11-27T16:33:35.124Z,77.09
2022-11-27T16:36:09.988Z,76.87
2022-11-27T16:38:36.694Z,77.21
2022-11-27T16:41:05.736Z,76.65
2022-11-27T16:43:35.284Z,75.92
2022-11-27T16:46:07.355Z,77.28
2022-11-27T16:48:35.531Z,76.89
2022-11-27T16:51:04.718Z,77.80
2022-11-27T16:53:31.327Z,76.42
2022-11-27T16:55:57.791Z,76.90
2022-11-27T16:58:24.615Z,77.13
2022-11-27T17:00:51.208Z,77.14
2022-11-27T17:03:17.855Z,77.71
2022-11-27T17:05:48.757Z,77.10
2022-11-27T17:08:17.835Z,77.41
2022-11-27T17:10:45.950Z,77.58
2022-11-27T17:13:12.543Z,77.71
2022-11-27T17:15:40.753Z,76.43
2022-11-27T17:18:07.417Z,76.99
2022-11-27T17:20:33.857Z,77.85
2022-11-27T17:23:00.503Z,76.29
2022-11-27T17:25:27.036Z,77.31
2022-11-27T17:27:53.511Z,76.98
2022-11-27T17:30:19.969Z,78.37
2022-11-27T17:32:46.393Z,78.49
2022-11-27T17:35:13.054Z,79.02
2022-11-27T17:37:39.503Z,76.90
2022-11-27T17:40:06.756Z,76.41
2022-11-27T17:42:33.207Z,78.25
2022-11-27T17:44:59.663Z,76.99
2022-11-27T17:47:26.316Z,77.92
2022-11-27T17:49:52.763Z,78.71
2022-11-27T17:52:19.262Z,77.72
2022-11-27T17:54:45.705Z,77.61
2022-11-27T17:57:12.177Z,79.27
2022-11-27T17:59:38.841Z,80.12
2022-11-27T18:02:05.534Z,80.42
2022-11-27T18:04:32.386Z,78.73
2022-11-27T18:06:58.962Z,77.22
2022-11-27T18:09:25.459Z,77.86
2022-11-27T18:11:52.277Z,77.12
2022-11-27T18:14:18.761Z,78.55
2022-11-27T18:16:45.677Z,78.26
2022-11-27T18:19:12.309Z,77.04
2022-11-27T18:21:39.407Z,77.59
2022-11-27T18:24:23.553Z,78.22
2022-11-27T18:29:39.222Z,77.85
2022-11-27T18:32:06.326Z,76.46
2022-11-27T18:34:32.961Z,77.55
2022-11-27T18:37:03.635Z,75.54
2022-11-27T18:39:31.708Z,76.87
2022-11-27T18:41:58.855Z,76.83
2022-11-27T18:44:25.586Z,74.99
2022-11-27T18:46:52.184Z,75.64
2022-11-27T18:49:19.048Z,74.89
2022-11-27T18:51:45.604Z,74.93
2022-11-27T18:54:12.208Z,74.55
2022-11-27T18:56:38.861Z,75.51
2022-11-27T18:59:07.043Z,76.19
2022-11-27T19:01:41.600Z,75.17
2022-11-27T19:04:09.627Z,75.79
2022-11-27T19:06:37.573Z,74.64
2022-11-27T19:09:04.902Z,75.05
2022-11-27T19:11:32.837Z,76.34
2022-11-27T19:13:59.694Z,74.23
2022-11-27T19:16:38.616Z,74.50
2022-11-27T19:19:06.384Z,75.43
2022-11-27T19:21:34.050Z,74.46
2022-11-27T19:24:02.609Z,74.88
2022-11-27T19:26:32.031Z,75.75
2022-11-27T19:29:00.910Z,73.79
2022-11-27T19:31:27.749Z,74.13
2022-11-27T19:33:55.755Z,73.89
2022-11-27T19:36:23.223Z,74.75
2022-11-27T19:38:54.741Z,75.45
2022-11-27T19:41:21.589Z,76.66
2022-11-27T19:43:48.277Z,76.11
2022-11-27T19:46:15.084Z,75.18
2022-11-27T19:48:42.045Z,75.42
2022-11-27T19:51:10.138Z,75.53
2022-11-27T19:53:37.787Z,74.31
2022-11-27T19:56:05.594Z,73.47
2022-11-27T19:58:32.498Z,75.72
2022-11-27T20:01:10.660Z,74.69
2022-11-27T20:03:37.592Z,75.81
2022-11-27T20:06:06.695Z,76.06
2022-11-27T20:08:33.524Z,76.77
2022-11-27T20:11:00.957Z,76.12
2022-11-27T20:13:27.869Z,76.31
2022-11-27T20:15:55.538Z,75.71
2022-11-27T20:18:22.501Z,75.33
2022-11-27T20:20:49.208Z,77.72
2022-11-27T20:23:15.839Z,75.85
2022-11-27T20:25:42.758Z,75.52
2022-11-27T20:28:10.080Z,76.15
2022-11-27T20:30:38.884Z,76.53
2022-11-27T20:33:07.675Z,76.96
2022-11-27T20:35:34.685Z,77.15
2022-11-27T20:38:01.397Z,75.37
2022-11-27T20:40:28.520Z,75.55
2022-11-27T20:42:55.333Z,77.41
2022-11-27T20:45:21.979Z,78.26
2022-11-27T20:47:48.827Z,76.59
2022-11-27T20:50:15.466Z,78.19
2022-11-27T20:52:42.241Z,76.68
2022-11-27T20:55:09.223Z,76.22
2022-11-27T20:57:35.984Z,77.54
2022-11-27T21:00:02.681Z,77.44
2022-11-27T21:02:29.514Z,77.08
2022-11-27T21:04:56.284Z,79.69
2022-11-27T21:07:23.146Z,77.22
2022-11-27T21:09:49.906Z,78.34
2022-11-27T21:12:16.938Z,78.43
2022-11-27T21:14:44.485Z,76.39
2022-11-27T21:17:11.130Z,75.72
2022-11-27T21:19:37.875Z,77.16
2022-11-27T21:22:04.574Z,76.37
2022-11-27T21:24:31.383Z,77.11
2022-11-27T21:26:58.043Z,76.91
2022-11-27T21:29:27.887Z,78.41
2022-11-27T21:31:55.516Z,78.24
2022-11-27T21:34:22.883Z,78.21
2022-11-27T21:36:49.618Z,77.55
2022-11-27T21:39:20.521Z,77.24
2022-11-27T21:41:48.975Z,78.47
2022-11-27T21:44:17.766Z,77.63
2022-11-27T21:46:48.469Z,77.23
2022-11-27T21:49:16.492Z,75.67
2022-11-27T21:51:43.186Z,76.44
2022-11-27T21:54:12.774Z,76.84
2022-11-27T21:56:40.934Z,76.80
2022-11-27T21:59:09.564Z,77.67
2022-11-27T22:01:36.911Z,76.30
2022-11-27T22:04:03.675Z,76.53
2022-11-27T22:06:35.461Z,78.34
2022-11-27T22:09:02.299Z,77.59
2022-11-27T22:11:32.730Z,77.58
2022-11-27T22:14:02.371Z,77.29
2022-11-27T22:16:31.472Z,77.11
2022-11-27T22:18:59.180Z,76.33
2022-11-27T22:21:27.497Z,77.81
2022-11-27T22:23:54.418Z,77.35
2022-11-27T22:26:22.620Z,78.71
2022-11-27T22:28:50.238Z,77.93
2022-11-27T22:31:22.558Z,78.26
2022-11-27T22:33:49.588Z,78.29
2022-11-27T22:36:26.960Z,77.04
2022-11-27T22:38:54.891Z,76.78
2022-11-27T22:41:23.792Z,76.15
2022-11-27T22:43:50.862Z,78.07
2022-11-27T22:46:27.212Z,78.82
2022-11-27T22:49:00.552Z,77.52
2022-11-27T22:51:29.310Z,77.90
2022-11-27T22:53:56.493Z,76.27
2022-11-27T22:56:23.489Z,75.74
2022-11-27T22:58:58.225Z,75.29
2022-11-27T23:01:32.954Z,78.56
2022-11-27T23:04:01.279Z,78.38
2022-11-27T23:06:28.404Z,78.35
2022-11-27T23:08:55.297Z,78.21
2022-11-27T23:11:27.275Z,78.97
2022-11-27T23:13:56.303Z,77.15
2022-11-27T23:16:23.122Z,77.78
2022-11-27T23:18:50.986Z,77.13
2022-11-27T23:21:19.906Z,78.24
2022-11-27T23:23:47.185Z,78.42
2022-11-27T23:26:18.309Z,77.81
2022-11-27T23:28:45.544Z,79.81
2022-11-27T23:31:33.176Z,79.65
2022-11-27T23:34:02.086Z,78.07
2022-11-27T23:36:30.031Z,78.21
2022-11-27T23:38:56.631Z,78.27
2022-11-27T23:41:24.791Z,79.35
2022-11-27T23:43:52.504Z,78.27
2022-11-27T23:46:20.481Z,79.15
2022-11-27T23:48:47.380Z,79.22
2022-11-27T23:51:18.876Z,79.00
2022-11-27T23:53:46.533Z,78.91
2022-11-27T23:56:15.617Z,78.54
2022-11-27T23:58:46.734Z,77.86
